Time;durP1;ratioP1;P1;durP2;ratioP2;P2;SDS_P1;SDS_P2;PMS_P1;PMS_P2;Temp;Humidity;BMP_temperature;BMP_pressure;BME280_temperature;BME280_humidity;BME280_pressure;Samples;Min_cycle;Max_cycle;Signal;HPM_P1;HPM_P2
2021/03/19 00:00:07;;;;;;;7.25;4.22;;;1.50;99.90;;;;;;5073790;28;20025;-50
2021/03/19 00:02:32;;;;;;;7.68;4.22;;;1.60;99.90;;;;;;5069936;28;20036;-50
2021/03/19 00:04:58;;;;;;;6.57;3.95;;;1.60;99.90;;;;;;5072944;28;20028;-49
2021/03/19 00:07:24;;;;;;;9.68;5.18;;;1.60;99.90;;;;;;5072527;28;20036;-50
2021/03/19 00:09:52;;;;;;;9.23;4.68;;;1.60;99.90;;;;;;5073561;28;20021;-55
2021/03/19 00:12:19;;;;;;;7.57;4.45;;;1.70;99.90;;;;;;5073198;28;20023;-49
2021/03/19 00:14:44;;;;;;;6.93;4.47;;;1.70;99.90;;;;;;5073456;28;20372;-51
2021/03/19 00:17:10;;;;;;;8.73;4.45;;;1.60;99.90;;;;;;5073260;28;20036;-52
2021/03/19 00:19:36;;;;;;;4.80;3.65;;;1.50;99.90;;;;;;5073375;28;20395;-50
2021/03/19 00:22:01;;;;;;;7.53;4.32;;;1.40;99.90;;;;;;5072521;28;20028;-51
2021/03/19 00:24:27;;;;;;;9.98;5.07;;;1.20;99.90;;;;;;5072965;28;20055;-54
2021/03/19 00:26:52;;;;;;;5.82;3.72;;;1.10;99.90;;;;;;5073070;28;20154;-50
2021/03/19 00:29:18;;;;;;;7.45;5.03;;;0.90;99.90;;;;;;5073052;28;20495;-47
2021/03/19 00:31:43;;;;;;;11.07;5.75;;;0.80;99.90;;;;;;5073114;28;20028;-51
2021/03/19 00:34:09;;;;;;;9.90;4.72;;;0.70;99.90;;;;;;5073174;28;20407;-52
2021/03/19 00:36:34;;;;;;;7.68;4.82;;;0.60;99.90;;;;;;5072300;28;20429;-52
2021/03/19 00:39:00;;;;;;;8.15;4.75;;;0.50;99.90;;;;;;5072869;28;20380;-48
2021/03/19 00:41:26;;;;;;;7.93;4.22;;;0.40;99.90;;;;;;5072981;28;20038;-49
2021/03/19 00:43:51;;;;;;;8.82;4.00;;;0.30;99.90;;;;;;5073008;28;20543;-48
2021/03/19 00:46:17;;;;;;;5.78;3.63;;;0.20;99.90;;;;;;5072481;28;20099;-50
2021/03/19 00:48:42;;;;;;;8.25;4.25;;;0.00;99.90;;;;;;5071366;28;20407;-53
2021/03/19 00:51:08;;;;;;;7.78;4.20;;;0.00;99.90;;;;;;5072804;28;20017;-52
2021/03/19 00:53:33;;;;;;;10.00;4.82;;;-0.10;99.90;;;;;;5071810;28;20111;-48
2021/03/19 00:55:59;;;;;;;9.07;4.40;;;-0.20;99.90;;;;;;5071099;28;20087;-49
2021/03/19 00:58:25;;;;;;;10.00;5.43;;;-0.30;99.90;;;;;;5072567;28;20400;-50
2021/03/19 01:00:50;;;;;;;8.10;4.30;;;-0.30;99.90;;;;;;5072634;28;20024;-50
2021/03/19 01:03:16;;;;;;;9.20;4.22;;;-0.30;99.90;;;;;;5072457;28;20032;-47
2021/03/19 01:05:43;;;;;;;5.97;3.70;;;-0.30;99.90;;;;;;5072439;28;20422;-52
2021/03/19 01:08:11;;;;;;;10.60;5.10;;;-0.30;99.90;;;;;;5071983;28;20035;-47
2021/03/19 01:10:40;;;;;;;7.32;4.55;;;-0.30;99.90;;;;;;5071848;28;20468;-52
2021/03/19 01:13:07;;;;;;;7.10;3.95;;;-0.30;99.90;;;;;;5053461;28;20181;-53
2021/03/19 01:15:33;;;;;;;8.23;4.65;;;-0.40;99.90;;;;;;5052115;28;20049;-50
2021/03/19 01:17:59;;;;;;;9.40;4.13;;;-0.40;99.90;;;;;;5053482;28;20017;-52
2021/03/19 01:20:27;;;;;;;8.82;4.70;;;-0.40;99.90;;;;;;5053174;28;20032;-50
2021/03/19 01:22:53;;;;;;;9.02;5.05;;;-0.40;99.90;;;;;;5052328;28;20086;-49
2021/03/19 01:25:22;;;;;;;7.18;4.05;;;-0.30;99.90;;;;;;5053101;28;20048;-49
2021/03/19 01:27:47;;;;;;;6.72;4.47;;;-0.30;99.90;;;;;;5053075;28;20048;-52
2021/03/19 01:30:19;;;;;;;11.27;5.53;;;-0.30;99.90;;;;;;5052892;28;20021;-51
2021/03/19 01:32:46;;;;;;;11.75;5.53;;;-0.30;99.90;;;;;;5051883;28;20063;-54
2021/03/19 01:35:13;;;;;;;10.15;5.50;;;-0.40;99.90;;;;;;5053059;28;20052;-48
2021/03/19 01:37:39;;;;;;;12.40;6.20;;;-0.40;99.90;;;;;;5052195;28;20029;-49
2021/03/19 01:40:07;;;;;;;13.05;6.53;;;-0.40;99.90;;;;;;5085024;28;20054;-54
2021/03/19 01:42:34;;;;;;;14.15;6.35;;;-0.40;99.90;;;;;;5093099;28;20554;-47
2021/03/19 01:45:24;;;;;;;16.88;8.20;;;-0.50;99.90;;;;;;5093107;28;20024;-47
2021/03/19 01:48:27;;;;;;;11.48;6.28;;;-0.50;99.90;;;;;;5093169;28;20070;-51
2021/03/19 01:51:30;;;;;;;16.35;7.68;;;-0.50;99.90;;;;;;5086448;28;20021;-51
2021/03/19 01:54:33;;;;;;;16.58;7.10;;;-0.50;99.90;;;;;;5072835;28;20036;-49
2021/03/19 01:57:36;;;;;;;16.83;7.05;;;-0.50;99.90;;;;;;5072635;28;20564;-50
2021/03/19 02:00:39;;;;;;;18.42;9.05;;;-0.50;99.90;;;;;;5072719;28;20496;-51
2021/03/19 02:03:41;;;;;;;19.85;8.43;;;-0.50;99.90;;;;;;5072757;28;20030;-52
2021/03/19 02:06:45;;;;;;;16.58;7.53;;;-0.40;99.90;;;;;;5072521;28;20468;-51
2021/03/19 02:09:48;;;;;;;19.67;8.35;;;-0.30;99.90;;;;;;5072565;28;20024;-52
2021/03/19 02:12:51;;;;;;;20.42;8.77;;;-0.20;99.90;;;;;;5072575;28;20025;-49
2021/03/19 02:15:53;;;;;;;25.30;9.20;;;-0.30;99.90;;;;;;5072510;28;20525;-50
2021/03/19 02:18:56;;;;;;;24.77;9.98;;;-0.30;99.90;;;;;;5072588;28;20025;-50
2021/03/19 02:21:59;;;;;;;26.30;10.23;;;-0.30;99.90;;;;;;5072411;28;20367;-52
2021/03/19 02:25:02;;;;;;;21.65;9.40;;;-0.30;99.90;;;;;;5072203;28;20035;-50
2021/03/19 02:28:05;;;;;;;25.98;9.90;;;-0.30;99.90;;;;;;5074739;28;20032;-50
2021/03/19 02:31:08;;;;;;;25.35;11.40;;;-0.30;99.90;;;;;;5076447;28;20025;-49
2021/03/19 02:33:34;;;;;;;25.25;9.85;;;-0.30;99.90;;;;;;5076483;28;20021;-48
2021/03/19 02:36:00;;;;;;;23.05;10.25;;;-0.20;99.90;;;;;;5076330;28;20027;-49
2021/03/19 02:38:27;;;;;;;29.65;11.73;;;-0.20;99.90;;;;;;5077817;28;20036;-54
2021/03/19 02:40:53;;;;;;;37.17;13.18;;;-0.20;99.90;;;;;;5096547;28;20073;-46
2021/03/19 02:43:21;;;;;;;24.25;10.05;;;-0.20;99.90;;;;;;5096333;28;20115;-48
2021/03/19 02:45:48;;;;;;;28.88;11.60;;;-0.20;99.90;;;;;;5096321;28;20027;-47
2021/03/19 02:48:14;;;;;;;29.75;11.23;;;-0.20;99.90;;;;;;5096562;28;20064;-48
2021/03/19 02:50:40;;;;;;;32.13;11.13;;;-0.20;99.90;;;;;;5091717;28;20519;-50
2021/03/19 02:53:13;;;;;;;27.90;11.20;;;-0.20;99.90;;;;;;5075235;28;20017;-49
2021/03/19 02:55:38;;;;;;;30.40;12.05;;;-0.10;99.90;;;;;;5075673;28;20052;-51
2021/03/19 02:58:04;;;;;;;26.63;10.40;;;0.00;99.90;;;;;;5075926;28;20025;-49
2021/03/19 03:00:29;;;;;;;29.33;13.57;;;0.10;99.90;;;;;;5075769;28;20032;-53
2021/03/19 03:02:55;;;;;;;30.60;12.40;;;0.20;99.90;;;;;;5074756;28;20528;-51
2021/03/19 03:05:20;;;;;;;30.92;11.40;;;0.30;99.90;;;;;;5073963;28;20411;-50
2021/03/19 03:07:46;;;;;;;22.15;9.18;;;0.30;99.90;;;;;;5074811;28;20031;-47
2021/03/19 03:10:15;;;;;;;28.58;11.25;;;0.40;99.90;;;;;;5075583;28;20078;-53
2021/03/19 03:12:40;;;;;;;28.55;11.88;;;0.50;99.90;;;;;;5075694;28;20024;-47
2021/03/19 03:15:09;;;;;;;25.75;10.35;;;0.60;99.90;;;;;;5075536;28;20021;-49
2021/03/19 03:17:35;;;;;;;23.95;9.55;;;0.60;99.90;;;;;;5075738;28;20035;-54
2021/03/19 03:20:01;;;;;;;28.20;11.90;;;0.70;99.90;;;;;;5075578;28;20465;-50
2021/03/19 03:22:26;;;;;;;20.92;9.95;;;0.70;99.90;;;;;;5074603;28;20074;-49
2021/03/19 03:24:52;;;;;;;22.88;9.82;;;0.80;99.90;;;;;;5075344;28;20353;-48
2021/03/19 03:27:17;;;;;;;26.65;12.00;;;0.80;99.90;;;;;;5075479;28;20035;-49
2021/03/19 03:29:43;;;;;;;26.02;10.98;;;0.80;99.90;;;;;;5073941;28;20020;-48
2021/03/19 03:32:09;;;;;;;29.63;10.73;;;0.90;99.90;;;;;;5075434;28;20031;-48
2021/03/19 03:34:34;;;;;;;25.30;12.35;;;0.90;99.90;;;;;;5075262;28;20475;-50
2021/03/19 03:37:00;;;;;;;23.95;14.13;;;1.00;99.90;;;;;;5074430;28;20024;-51
2021/03/19 03:39:30;;;;;;;23.27;11.10;;;1.00;99.90;;;;;;5084635;28;20024;-52
2021/03/19 03:41:58;;;;;;;25.02;12.05;;;1.00;99.90;;;;;;5095605;28;20032;-51
2021/03/19 03:44:24;;;;;;;27.17;13.05;;;1.00;99.90;;;;;;5095315;28;20107;-51
2021/03/19 03:46:50;;;;;;;25.60;12.55;;;1.00;99.90;;;;;;5095382;28;20030;-51
2021/03/19 03:49:17;;;;;;;23.27;11.02;;;1.00;99.90;;;;;;5095468;28;20139;-48
2021/03/19 03:51:44;;;;;;;23.95;11.77;;;1.00;99.90;;;;;;5080966;28;20098;-51
2021/03/19 03:54:10;;;;;;;22.20;10.77;;;1.00;99.90;;;;;;5074857;28;20025;-51
2021/03/19 03:56:35;;;;;;;25.77;12.00;;;1.00;99.90;;;;;;5074850;28;20507;-50
2021/03/19 03:59:02;;;;;;;27.38;11.18;;;1.00;99.90;;;;;;5074856;28;20078;-49
2021/03/19 04:01:27;;;;;;;19.23;9.77;;;0.90;99.90;;;;;;5072831;28;20051;-50
2021/03/19 04:03:53;;;;;;;22.27;10.18;;;0.90;99.90;;;;;;5074913;28;20032;-50
2021/03/19 04:06:19;;;;;;;22.25;9.95;;;0.80;99.90;;;;;;5074713;28;20052;-50
2021/03/19 04:08:45;;;;;;;19.55;9.20;;;0.70;99.90;;;;;;5072517;28;20021;-51
2021/03/19 04:11:15;;;;;;;19.42;9.10;;;0.60;99.90;;;;;;5074607;28;20598;-51
2021/03/19 04:13:41;;;;;;;22.10;8.90;;;0.50;99.90;;;;;;5074662;28;20066;-49
2021/03/19 04:16:07;;;;;;;20.67;10.52;;;0.50;99.90;;;;;;5074424;28;20025;-49
2021/03/19 04:18:33;;;;;;;18.98;9.23;;;0.50;99.90;;;;;;5074619;28;20020;-51
2021/03/19 04:21:01;;;;;;;23.83;12.18;;;0.60;99.90;;;;;;5074459;28;20025;-52
2021/03/19 04:23:29;;;;;;;26.63;12.35;;;0.60;99.90;;;;;;5073312;28;20032;-49
2021/03/19 04:25:55;;;;;;;27.33;12.27;;;0.60;99.90;;;;;;5074277;28;20578;-48
2021/03/19 04:28:23;;;;;;;24.65;12.43;;;0.50;99.90;;;;;;5074450;28;20016;-52
2021/03/19 04:30:49;;;;;;;28.33;12.93;;;0.30;99.90;;;;;;5074004;28;20071;-47
2021/03/19 04:33:22;;;;;;;32.28;14.70;;;0.20;99.90;;;;;;5074382;28;20487;-52
2021/03/19 04:35:54;;;;;;;24.60;11.63;;;0.00;99.90;;;;;;5074083;28;20027;-49
2021/03/19 04:38:20;;;;;;;28.90;13.02;;;-0.10;99.90;;;;;;5074731;28;20464;-50
2021/03/19 04:40:46;;;;;;;26.05;11.27;;;-0.20;99.90;;;;;;5094273;28;20028;-49
2021/03/19 04:43:14;;;;;;;31.23;13.20;;;-0.40;99.90;;;;;;5094417;28;20020;-47
2021/03/19 04:45:42;;;;;;;25.67;10.70;;;-0.50;99.90;;;;;;5093918;28;20392;-49
2021/03/19 04:48:08;;;;;;;30.10;11.75;;;-0.70;99.90;;;;;;5094246;28;20028;-50
2021/03/19 04:50:34;;;;;;;29.98;11.88;;;-0.80;99.90;;;;;;5089832;28;20091;-49
2021/03/19 04:53:00;;;;;;;27.10;11.85;;;-0.80;99.90;;;;;;5073033;28;20105;-51
2021/03/19 04:55:26;;;;;;;25.95;11.52;;;-0.90;99.90;;;;;;5073649;28;20021;-50
2021/03/19 04:57:51;;;;;;;30.75;11.88;;;-0.90;99.90;;;;;;5073798;28;20074;-53
2021/03/19 05:00:19;;;;;;;29.27;13.05;;;-1.00;99.90;;;;;;5073550;28;20024;-49
2021/03/19 05:02:46;;;;;;;26.75;11.77;;;-1.00;99.90;;;;;;5073705;28;20028;-48
2021/03/19 05:05:16;;;;;;;27.13;10.20;;;-1.10;99.90;;;;;;5073470;28;20348;-51
2021/03/19 05:07:41;;;;;;;35.25;12.57;;;-1.10;99.90;;;;;;5072544;28;20394;-48
2021/03/19 05:10:09;;;;;;;37.35;13.40;;;-1.10;99.90;;;;;;5073380;28;20058;-49
2021/03/19 05:12:34;;;;;;;33.05;13.23;;;-1.20;99.90;;;;;;5073421;28;20020;-50
2021/03/19 05:15:01;;;;;;;23.52;11.15;;;-1.20;99.90;;;;;;5073318;28;20490;-50
2021/03/19 05:17:30;;;;;;;34.10;13.02;;;-1.30;99.90;;;;;;5073231;28;20032;-48
2021/03/19 05:19:56;;;;;;;31.00;12.60;;;-1.30;99.90;;;;;;5073634;28;20392;-54
2021/03/19 05:22:21;;;;;;;31.98;12.25;;;-1.30;99.90;;;;;;5071025;28;20115;-49
2021/03/19 05:24:47;;;;;;;32.30;13.40;;;-1.30;99.90;;;;;;5073248;28;20059;-50
2021/03/19 05:27:12;;;;;;;43.15;14.82;;;-1.30;99.90;;;;;;5073049;28;20060;-50
2021/03/19 05:29:38;;;;;;;34.00;12.75;;;-1.30;99.90;;;;;;5073168;28;20017;-47
2021/03/19 05:32:04;;;;;;;36.13;13.90;;;-1.30;99.90;;;;;;5072827;28;20026;-50
2021/03/19 05:34:29;;;;;;;41.78;14.95;;;-1.30;99.90;;;;;;5073209;28;20099;-50
2021/03/19 05:36:55;;;;;;;37.00;14.93;;;-1.30;99.90;;;;;;5072018;28;20036;-48
2021/03/19 05:39:20;;;;;;;45.55;15.93;;;-1.30;99.90;;;;;;5083006;28;20032;-51
2021/03/19 05:41:46;;;;;;;34.25;15.13;;;-1.30;99.90;;;;;;5093096;28;20035;-51
2021/03/19 05:44:23;;;;;;;44.13;17.02;;;-1.30;99.90;;;;;;5092202;28;20364;-54
2021/03/19 05:46:55;;;;;;;42.05;14.27;;;-1.20;99.90;;;;;;5091522;28;20502;-53
2021/03/19 05:49:31;;;;;;;38.50;13.25;;;-1.20;99.90;;;;;;5093221;28;20016;-50
2021/03/19 05:52:07;;;;;;;40.25;15.52;;;-1.10;99.90;;;;;;5077075;28;20479;-49
2021/03/19 05:54:41;;;;;;;37.97;15.40;;;-1.00;99.90;;;;;;5068889;28;20024;-48
2021/03/19 05:57:07;;;;;;;39.30;15.68;;;-0.90;99.90;;;;;;5070791;28;20078;-49
2021/03/19 05:59:42;;;;;;;41.35;14.77;;;-0.70;99.90;;;;;;5072069;28;20029;-49
2021/03/19 06:02:30;;;;;;;35.22;15.05;;;-0.60;99.90;;;;;;5071447;28;20028;-48
2021/03/19 06:05:08;;;;;;;42.63;16.20;;;-0.50;99.90;;;;;;5072226;28;20506;-48
2021/03/19 06:07:53;;;;;;;39.83;15.55;;;-0.20;99.90;;;;;;5071109;28;20063;-48
2021/03/19 06:10:27;;;;;;;38.50;16.20;;;0.10;99.90;;;;;;5072191;28;20500;-50
2021/03/19 06:13:24;;;;;;;38.17;15.30;;;0.50;99.90;;;;;;5072056;28;20074;-48
2021/03/19 06:16:14;;;;;;;31.30;14.35;;;0.80;99.90;;;;;;5071868;28;20035;-51
2021/03/19 06:18:40;;;;;;;38.40;15.70;;;1.00;99.90;;;;;;5072169;28;20072;-51
2021/03/19 06:21:11;;;;;;;42.47;19.17;;;1.70;99.90;;;;;;5072336;28;20215;-48
2021/03/19 06:23:58;;;;;;;35.30;17.15;;;2.20;99.90;;;;;;5071715;28;20042;-50
2021/03/19 06:26:28;;;;;;;36.55;18.00;;;2.70;99.90;;;;;;5072099;28;20025;-48
2021/03/19 06:29:19;;;;;;;39.42;17.67;;;3.50;99.90;;;;;;5072517;28;20090;-46
2021/03/19 06:32:05;;;;;;;40.08;18.17;;;4.40;99.90;;;;;;5072347;28;20087;-51
2021/03/19 06:34:32;;;;;;;35.53;16.52;;;4.50;99.90;;;;;;5072316;28;20028;-48
2021/03/19 06:37:05;;;;;;;31.92;15.48;;;4.90;99.90;;;;;;5071235;28;20035;-47
2021/03/19 06:39:47;;;;;;;33.03;16.70;;;5.90;99.90;;;;;;5083929;28;20059;-50
2021/03/19 06:42:18;;;;;;;27.63;14.45;;;6.20;99.90;;;;;;5070892;28;20024;-51
2021/03/19 06:45:12;;;;;;;30.88;16.55;;;7.00;99.60;;;;;;5072312;28;20032;-48
2021/03/19 06:47:44;;;;;;;24.13;13.52;;;8.00;95.80;;;;;;5072021;28;20116;-52
2021/03/19 06:50:24;;;;;;;26.17;14.38;;;9.20;94.00;;;;;;5072091;28;20488;-57
2021/03/19 06:52:52;;;;;;;22.05;12.60;;;10.10;85.10;;;;;;5070977;28;20025;-58
2021/03/19 06:55:51;;;;;;;22.00;12.95;;;10.80;82.30;;;;;;5072065;28;20017;-60
2021/03/19 06:58:35;;;;;;;25.05;15.10;;;10.10;85.90;;;;;;5019917;28;20060;-59
2021/03/19 07:01:01;;;;;;;18.23;11.57;;;9.50;84.20;;;;;;5071917;28;20040;-60
2021/03/19 07:03:35;;;;;;;24.10;14.23;;;9.40;88.70;;;;;;5071811;28;20025;-59
2021/03/19 07:06:28;;;;;;;26.80;14.07;;;8.90;84.40;;;;;;5071665;28;20107;-59
2021/03/19 07:09:28;;;;;;;25.77;15.52;;;8.10;84.70;;;;;;5071926;28;20028;-58
2021/03/19 07:12:12;;;;;;;25.73;13.50;;;7.40;87.80;;;;;;5071671;28;20028;-60
2021/03/19 07:14:52;;;;;;;22.33;12.85;;;6.70;90.40;;;;;;5075515;28;20025;-58
2021/03/19 07:17:49;;;;;;;21.65;12.77;;;6.40;90.80;;;;;;5075473;28;20055;-60
2021/03/19 07:20:23;;;;;;;24.50;13.85;;;6.10;91.70;;;;;;5075361;28;20036;-60
2021/03/19 07:23:14;;;;;;;24.92;14.15;;;5.80;92.60;;;;;;5074196;28;20025;-58
2021/03/19 07:25:53;;;;;;;23.55;12.75;;;5.50;91.30;;;;;;5075480;28;20017;-60
2021/03/19 07:28:26;;;;;;;27.20;14.52;;;5.30;92.20;;;;;;5075271;28;20104;-60
2021/03/19 07:31:30;;;;;;;22.83;13.43;;;5.10;92.60;;;;;;5075092;28;20047;-59
2021/03/19 07:34:13;;;;;;;23.15;12.57;;;5.00;92.10;;;;;;5075005;28;20031;-62
2021/03/19 07:36:57;;;;;;;29.17;15.43;;;5.00;93.20;;;;;;5074462;28;20396;-60
2021/03/19 07:40:01;;;;;;;27.95;14.30;;;4.90;92.50;;;;;;5085212;28;20059;-61
2021/03/19 07:42:51;;;;;;;29.13;14.95;;;5.00;93.20;;;;;;5095344;28;20028;-59
2021/03/19 07:45:33;;;;;;;21.45;11.50;;;4.90;93.10;;;;;;5095310;28;20028;-57
2021/03/19 07:48:13;;;;;;;25.45;12.77;;;4.90;93.50;;;;;;5094952;28;20070;-60
2021/03/19 07:50:48;;;;;;;26.27;13.13;;;5.00;93.60;;;;;;5090689;28;20008;-60
2021/03/19 07:53:41;;;;;;;20.65;11.20;;;5.10;93.60;;;;;;5072486;28;20102;-57
2021/03/19 07:56:25;;;;;;;22.90;12.60;;;5.20;93.50;;;;;;5074495;28;20054;-59
2021/03/19 07:59:14;;;;;;;26.77;13.88;;;5.20;93.20;;;;;;5074699;28;20025;-57
2021/03/19 08:02:12;;;;;;;19.38;11.07;;;5.10;93.40;;;;;;5074770;28;20451;-60
2021/03/19 08:04:58;;;;;;;27.75;15.93;;;4.90;93.60;;;;;;5074425;28;20025;-59
2021/03/19 08:07:36;;;;;;;;;;;4.50;93.80;;;;;;5073964;28;20042;-59
2021/03/19 08:10:24;;;;;;;;;;;4.40;94.40;;;;;;5075027;28;19962;-60
2021/03/19 08:12:56;;;;;;;20.65;10.75;;;4.30;95.30;;;;;;5063463;28;20373;-61
2021/03/19 08:15:43;;;;;;;18.27;9.98;;;4.30;96.00;;;;;;5074577;28;20411;-60
2021/03/19 08:18:27;;;;;;;17.52;9.57;;;4.30;96.40;;;;;;5074208;28;20567;-60
2021/03/19 08:21:19;;;;;;;16.42;9.23;;;4.30;96.70;;;;;;5074282;28;20448;-60
2021/03/19 08:24:07;;;;;;;20.77;10.77;;;4.30;97.10;;;;;;5071116;28;20047;-58
2021/03/19 08:26:39;;;;;;;20.60;10.30;;;4.30;97.90;;;;;;5074297;28;20112;-60
2021/03/19 08:29:42;;;;;;;18.88;9.77;;;4.20;98.50;;;;;;5074083;28;20361;-63
2021/03/19 08:32:45;;;;;;;23.80;10.73;;;4.20;99.00;;;;;;5074015;28;20028;-61
2021/03/19 08:35:31;;;;;;;24.50;11.48;;;4.20;99.10;;;;;;5064629;28;20025;-62
2021/03/19 08:38:17;;;;;;;20.35;9.50;;;4.10;99.60;;;;;;5052525;28;20067;-62
2021/03/19 08:40:59;;;;;;;20.13;9.68;;;4.00;99.90;;;;;;5054104;28;20504;-59
2021/03/19 08:43:31;;;;;;;21.42;10.80;;;4.00;99.90;;;;;;5053829;28;20021;-62
2021/03/19 08:46:20;;;;;;;23.48;12.00;;;3.90;99.90;;;;;;5053851;28;20384;-61
2021/03/19 08:48:57;;;;;;;18.98;9.93;;;3.90;99.90;;;;;;5053847;28;20076;-61
2021/03/19 08:51:28;;;;;;;20.65;11.13;;;3.90;99.90;;;;;;5062533;28;20063;-61
2021/03/19 08:54:07;;;;;;;24.60;12.43;;;3.90;99.90;;;;;;5073710;28;20032;-60
2021/03/19 08:56:33;;;;;;;18.40;9.98;;;3.80;99.90;;;;;;5073449;28;20080;-62
2021/03/19 08:58:59;;;;;;;19.23;9.45;;;3.70;99.90;;;;;;5073583;28;20033;-62
2021/03/19 09:01:46;;;;;;;21.17;11.00;;;3.70;99.90;;;;;;5073562;28;20029;-61
2021/03/19 09:04:12;;;;;;;20.05;10.25;;;3.80;99.90;;;;;;5073342;28;20036;-62
2021/03/19 09:06:37;;;;;;;18.35;8.75;;;3.70;99.90;;;;;;5070909;28;20070;-61
2021/03/19 09:09:11;;;;;;;24.00;12.23;;;3.70;99.90;;;;;;5073235;28;20375;-60
2021/03/19 09:11:37;;;;;;;14.98;8.48;;;3.70;99.90;;;;;;5073369;28;20099;-61
2021/03/19 09:14:03;;;;;;;14.95;7.63;;;3.70;99.90;;;;;;5071965;28;20027;-60
2021/03/19 09:16:55;;;;;;;21.13;9.90;;;3.70;99.90;;;;;;5073662;28;20024;-62
2021/03/19 09:19:34;;;;;;;18.50;9.60;;;3.70;99.90;;;;;;5066393;28;20032;-61
2021/03/19 09:22:22;;;;;;;13.27;8.77;;;3.70;99.90;;;;;;5071949;28;20029;-61
2021/03/19 09:25:13;;;;;;;11.60;6.05;;;3.90;99.90;;;;;;5073253;28;20210;-62
2021/03/19 09:28:16;;;;;;;9.45;5.80;;;4.50;99.90;;;;;;5073028;28;20535;-62
2021/03/19 09:30:59;;;;;;;10.15;4.32;;;5.60;99.20;;;;;;5063405;28;20036;-58
2021/03/19 09:33:47;;;;;;;6.50;4.45;;;6.90;94.10;;;;;;5073119;28;20035;-62
2021/03/19 09:36:52;;;;;;;6.63;3.72;;;7.40;88.80;;;;;;5070966;28;20032;-62
2021/03/19 09:39:55;;;;;;;5.72;4.15;;;7.80;83.60;;;;;;5072709;28;20035;-60
2021/03/19 09:42:21;;;;;;;5.28;3.55;;;6.90;82.60;;;;;;5072744;28;20067;-62
2021/03/19 09:44:59;;;;;;;5.88;3.88;;;6.40;84.70;;;;;;5071482;28;20484;-62
2021/03/19 09:47:43;;;;;;;7.25;4.32;;;6.30;85.30;;;;;;5072684;28;20027;-60
2021/03/19 09:50:23;;;;;;;9.30;5.57;;;6.00;84.90;;;;;;5070646;28;20085;-62
2021/03/19 09:53:04;;;;;;;7.97;4.07;;;5.70;86.10;;;;;;5071199;28;20531;-62
2021/03/19 09:55:42;;;;;;;6.38;4.13;;;5.40;86.40;;;;;;5072543;28;20066;-62
2021/03/19 09:58:26;;;;;;;9.20;4.80;;;5.30;89.20;;;;;;5072557;28;20033;-62
2021/03/19 10:00:57;;;;;;;6.32;4.22;;;5.10;87.90;;;;;;5072634;28;20516;-62
2021/03/19 10:03:22;;;;;;;7.10;3.97;;;5.00;89.30;;;;;;5072295;28;20430;-62
2021/03/19 10:05:48;;;;;;;8.05;4.90;;;4.90;90.10;;;;;;5072611;28;20044;-62
2021/03/19 10:08:31;;;;;;;8.63;5.20;;;4.80;90.20;;;;;;5070945;28;20131;-62
2021/03/19 10:11:09;;;;;;;7.25;4.70;;;4.70;90.70;;;;;;5072635;28;20074;-62
2021/03/19 10:13:35;;;;;;;10.38;4.45;;;4.70;91.20;;;;;;5072419;28;20385;-62
2021/03/19 10:16:02;;;;;;;5.65;3.65;;;4.80;90.60;;;;;;5071042;28;20024;-62
2021/03/19 10:18:32;;;;;;;6.50;3.83;;;4.90;91.30;;;;;;5072330;28;20025;-61
2021/03/19 10:21:11;;;;;;;6.75;4.50;;;5.20;91.60;;;;;;5072395;28;20349;-61
2021/03/19 10:23:39;;;;;;;5.43;3.40;;;5.50;90.20;;;;;;5071690;28;20028;-62
2021/03/19 10:26:29;;;;;;;6.47;3.63;;;5.60;89.60;;;;;;5072334;28;20048;-62
2021/03/19 10:29:18;;;;;;;6.50;3.67;;;5.80;90.00;;;;;;5072286;28;20389;-62
2021/03/19 10:31:51;;;;;;;7.93;3.92;;;5.70;88.30;;;;;;5064147;28;20024;-62
2021/03/19 10:34:27;;;;;;;6.35;3.55;;;5.70;89.60;;;;;;5072138;28;20104;-61
2021/03/19 10:37:24;;;;;;;6.38;4.22;;;5.80;88.60;;;;;;5071143;28;20486;-62
2021/03/19 10:39:57;;;;;;;9.93;4.43;;;6.20;86.40;;;;;;5071893;28;20033;-62
2021/03/19 10:42:36;;;;;;;5.88;3.65;;;6.30;84.60;;;;;;5072214;28;20028;-59
2021/03/19 10:45:14;;;;;;;5.00;3.38;;;6.20;85.80;;;;;;5070840;28;20032;-58
2021/03/19 10:47:53;;;;;;;7.00;3.28;;;6.00;87.10;;;;;;5073228;28;20097;-62
2021/03/19 10:50:27;;;;;;;6.28;2.95;;;5.70;88.30;;;;;;5076007;28;20020;-62
2021/03/19 10:53:01;;;;;;;5.15;3.30;;;5.50;89.40;;;;;;5074608;28;20020;-60
2021/03/19 10:55:33;;;;;;;5.00;3.78;;;5.30;89.40;;;;;;5075766;28;20363;-62
2021/03/19 10:58:22;;;;;;;4.68;2.90;;;5.10;90.40;;;;;;5075983;28;20400;-59
2021/03/19 11:00:53;;;;;;;4.70;3.22;;;5.00;91.30;;;;;;5074672;28;20028;-62
2021/03/19 11:03:44;;;;;;;3.53;2.78;;;5.00;91.80;;;;;;5075679;28;20028;-62
2021/03/19 11:06:27;;;;;;;3.63;2.10;;;5.20;90.30;;;;;;5074958;28;20059;-62
2021/03/19 11:09:14;;;;;;;2.95;2.47;;;5.60;90.40;;;;;;5075557;28;20511;-62
2021/03/19 11:11:46;;;;;;;2.70;2.30;;;6.20;86.80;;;;;;5061677;28;20029;-62
2021/03/19 11:14:18;;;;;;;4.85;2.20;;;6.40;82.80;;;;;;5075201;28;20029;-62
2021/03/19 11:16:47;;;;;;;3.08;1.98;;;6.20;80.40;;;;;;5074396;28;20043;-62
2021/03/19 11:19:17;;;;;;;6.50;2.15;;;6.00;80.20;;;;;;5075391;28;20491;-62
2021/03/19 11:21:45;;;;;;;1.95;1.45;;;5.90;78.20;;;;;;5074260;28;20024;-61
2021/03/19 11:24:33;;;;;;;2.90;1.67;;;5.90;77.80;;;;;;5075301;28;20026;-60
2021/03/19 11:27:22;;;;;;;3.17;2.00;;;5.90;77.00;;;;;;5075355;28;20480;-62
2021/03/19 11:29:49;;;;;;;2.45;1.73;;;5.80;75.90;;;;;;5075199;28;20029;-62
2021/03/19 11:32:14;;;;;;;3.75;2.10;;;5.80;76.10;;;;;;5075260;28;20029;-61
2021/03/19 11:34:51;;;;;;;4.18;1.92;;;5.60;74.20;;;;;;5075409;28;20021;-62
2021/03/19 11:37:23;;;;;;;4.20;2.10;;;5.40;74.10;;;;;;5073717;28;20016;-63
2021/03/19 11:40:13;;;;;;;4.45;2.20;;;5.30;74.40;;;;;;5074919;28;20031;-62
2021/03/19 11:42:46;;;;;;;2.30;1.88;;;5.30;73.80;;;;;;5075050;28;20029;-60
2021/03/19 11:45:19;;;;;;;3.33;1.98;;;5.30;73.90;;;;;;5074857;28;20032;-63
2021/03/19 11:48:06;;;;;;;7.18;2.03;;;5.40;73.30;;;;;;5074881;28;20028;-62
2021/03/19 11:50:39;;;;;;;3.17;2.00;;;5.40;72.90;;;;;;5064826;28;20040;-62
2021/03/19 11:53:11;;;;;;;2.92;1.73;;;5.40;74.10;;;;;;5073745;28;20028;-59
2021/03/19 11:55:42;;;;;;;6.78;1.88;;;5.50;72.80;;;;;;5074537;28;20091;-62
2021/03/19 11:58:10;;;;;;;5.18;2.05;;;5.50;72.00;;;;;;5074691;28;20021;-62
2021/03/19 12:00:38;;;;;;;3.17;2.00;;;5.50;71.00;;;;;;5073560;28;20503;-60
2021/03/19 12:03:06;;;;;;;4.35;1.80;;;5.60;71.30;;;;;;5074835;28;20051;-62
2021/03/19 12:05:33;;;;;;;4.07;1.50;;;5.80;72.00;;;;;;5074637;28;20025;-62
2021/03/19 12:07:59;;;;;;;3.63;1.92;;;5.80;71.80;;;;;;5073195;28;20033;-60
2021/03/19 12:10:29;;;;;;;3.53;2.30;;;5.60;72.20;;;;;;5074216;28;20027;-62
2021/03/19 12:13:00;;;;;;;4.53;2.50;;;5.30;72.90;;;;;;5073312;28;20024;-62
2021/03/19 12:15:28;;;;;;;3.33;2.20;;;5.00;75.50;;;;;;5074385;28;20016;-62
2021/03/19 12:17:54;;;;;;;2.50;1.65;;;4.80;78.50;;;;;;5074622;28;20039;-62
2021/03/19 12:20:20;;;;;;;4.60;2.10;;;4.70;79.70;;;;;;5074327;28;20032;-62
2021/03/19 12:22:46;;;;;;;5.07;1.95;;;4.80;80.20;;;;;;5069019;28;20032;-63
2021/03/19 12:25:24;;;;;;;2.05;1.45;;;4.90;80.80;;;;;;5072115;28;20051;-63
2021/03/19 12:27:50;;;;;;;2.65;1.88;;;5.10;80.40;;;;;;5073929;28;20104;-62
2021/03/19 12:30:17;;;;;;;5.25;1.90;;;5.30;79.80;;;;;;5073530;28;20108;-63
2021/03/19 12:32:43;;;;;;;3.83;1.67;;;5.50;79.30;;;;;;5073637;28;20051;-63
2021/03/19 12:35:09;;;;;;;2.50;1.65;;;5.70;79.10;;;;;;5073382;28;20279;-63
2021/03/19 12:37:35;;;;;;;5.78;2.22;;;5.90;79.10;;;;;;5072544;28;20509;-61
2021/03/19 12:40:01;;;;;;;3.70;2.30;;;6.00;76.20;;;;;;5073607;28;20033;-63
2021/03/19 12:42:27;;;;;;;3.45;1.85;;;6.00;75.40;;;;;;5073367;28;20032;-63
2021/03/19 12:44:52;;;;;;;4.57;1.83;;;5.70;75.20;;;;;;5073550;28;20036;-61
2021/03/19 12:47:18;;;;;;;4.10;1.70;;;5.60;75.30;;;;;;5073124;28;20020;-63
2021/03/19 12:49:43;;;;;;;3.15;1.70;;;5.50;75.90;;;;;;5073353;28;20032;-59
2021/03/19 12:52:09;;;;;;;4.90;1.52;;;5.60;75.20;;;;;;5072368;28;20024;-63
2021/03/19 12:54:34;;;;;;;3.78;1.52;;;5.60;75.40;;;;;;5072868;28;20024;-63
2021/03/19 12:57:00;;;;;;;3.53;1.55;;;5.60;76.10;;;;;;5072783;28;20392;-64
2021/03/19 12:59:26;;;;;;;2.03;1.10;;;5.60;73.60;;;;;;5072948;28;20063;-63
2021/03/19 13:01:52;;;;;;;4.57;1.70;;;5.60;74.40;;;;;;5073163;28;20178;-64
2021/03/19 13:04:17;;;;;;;2.72;1.20;;;5.60;71.10;;;;;;5073168;28;20029;-62
2021/03/19 13:06:43;;;;;;;7.38;1.60;;;5.60;71.40;;;;;;5072101;28;20021;-63
2021/03/19 13:09:11;;;;;;;3.95;1.88;;;5.40;71.30;;;;;;5072900;28;20466;-62
2021/03/19 13:11:37;;;;;;;4.15;1.40;;;5.20;71.20;;;;;;5072718;28;20013;-62
2021/03/19 13:14:03;;;;;;;2.85;1.25;;;5.00;71.60;;;;;;5072938;28;20016;-62
2021/03/19 13:16:28;;;;;;;3.47;1.20;;;5.00;70.50;;;;;;5072786;28;20504;-63
2021/03/19 13:18:54;;;;;;;2.80;1.23;;;5.00;69.20;;;;;;5072825;28;20036;-62